createdAt,value
2022-10-30T00:01:39.381Z,14.55
2022-10-30T00:04:06.542Z,14.54
2022-10-30T00:06:33.392Z,14.54
2022-10-30T00:09:00.260Z,14.52
2022-10-30T00:11:27.320Z,14.50
2022-10-30T00:13:54.162Z,14.49
2022-10-30T00:16:21.010Z,14.50
2022-10-30T00:18:47.907Z,14.47
2022-10-30T00:21:16.370Z,14.48
2022-10-30T00:23:51.320Z,14.47
2022-10-30T00:26:19.755Z,14.47
2022-10-30T00:28:51.013Z,14.47
2022-10-30T00:31:17.864Z,14.42
2022-10-30T00:33:44.815Z,14.44
2022-10-30T00:36:11.612Z,14.41
2022-10-30T00:38:38.416Z,14.42
2022-10-30T00:41:05.391Z,14.40
2022-10-30T00:43:35.802Z,14.39
2022-10-30T00:46:26.334Z,14.39
2022-10-30T00:48:58.093Z,14.40
2022-10-30T00:51:25.871Z,14.41
2022-10-30T00:53:53.420Z,14.41
2022-10-30T00:56:23.318Z,14.38
2022-10-30T00:58:57.407Z,14.37
2022-10-30T01:01:27.214Z,14.36
2022-10-30T01:03:58.110Z,14.38
2022-10-30T01:06:25.248Z,14.38
2022-10-30T01:08:58.773Z,14.36
2022-10-30T01:11:27.072Z,14.37
2022-10-30T01:13:58.504Z,14.35
2022-10-30T01:16:37.408Z,14.36
2022-10-30T01:19:22.510Z,14.34
2022-10-30T01:21:56.154Z,14.34
2022-10-30T01:24:22.921Z,14.33
2022-10-30T01:27:11.505Z,14.30
2022-10-30T01:29:57.249Z,14.33
2022-10-30T01:32:33.420Z,14.31
2022-10-30T01:35:18.096Z,14.30
2022-10-30T01:38:00.707Z,14.30
2022-10-30T01:40:28.171Z,14.30
2022-10-30T01:42:57.551Z,14.29
2022-10-30T01:46:15.872Z,14.28
2022-10-30T01:49:01.676Z,14.30
2022-10-30T01:51:34.190Z,14.29
2022-10-30T01:54:15.013Z,14.27
2022-10-30T01:56:47.565Z,14.26
2022-10-30T01:59:26.904Z,14.25
2022-10-30T02:01:53.793Z,14.26
2022-10-30T02:04:20.961Z,14.20
2022-10-30T02:06:48.157Z,14.19
2022-10-30T02:09:16.322Z,14.18
2022-10-30T02:11:46.140Z,14.19
2022-10-30T02:14:16.172Z,14.18
2022-10-30T02:16:49.177Z,14.16
2022-10-30T02:19:17.298Z,14.16
2022-10-30T02:21:44.136Z,14.13
2022-10-30T02:24:10.991Z,14.14
2022-10-30T02:26:38.243Z,14.14
2022-10-30T02:29:05.073Z,14.13
2022-10-30T02:31:31.876Z,14.10
2022-10-30T02:33:58.740Z,14.09
2022-10-30T02:36:25.574Z,14.07
2022-10-30T02:38:52.407Z,14.06
2022-10-30T02:41:19.179Z,14.07
2022-10-30T02:43:45.937Z,14.05
2022-10-30T02:46:12.804Z,14.04
2022-10-30T02:48:39.746Z,14.02
2022-10-30T02:51:06.548Z,14.03
2022-10-30T02:53:34.498Z,14.02
2022-10-30T02:56:13.020Z,14.00
2022-10-30T02:58:40.969Z,13.99
2022-10-30T03:01:13.461Z,13.97
2022-10-30T03:03:40.352Z,13.96
2022-10-30T03:06:09.987Z,13.98
2022-10-30T03:08:36.967Z,13.96
2022-10-30T03:11:06.837Z,13.98
2022-10-30T03:13:34.827Z,14.07
2022-10-30T03:16:07.316Z,14.06
2022-10-30T03:18:34.471Z,14.03
2022-10-30T03:21:03.887Z,14.04
2022-10-30T03:23:30.792Z,14.03
2022-10-30T03:25:59.056Z,14.03
2022-10-30T03:28:28.199Z,14.01
2022-10-30T03:31:03.462Z,13.95
2022-10-30T03:33:31.333Z,13.97
2022-10-30T03:35:58.115Z,13.95
2022-10-30T03:38:24.914Z,13.95
2022-10-30T03:40:52.543Z,13.99
2022-10-30T03:43:19.534Z,13.97
2022-10-30T03:45:51.770Z,13.97
2022-10-30T03:48:20.749Z,13.96
2022-10-30T03:50:47.969Z,13.96
2022-10-30T03:53:15.425Z,13.95
2022-10-30T03:55:42.543Z,13.92
2022-10-30T03:58:09.449Z,13.92
2022-10-30T04:00:36.782Z,13.90
2022-10-30T04:03:07.351Z,13.89
2022-10-30T04:05:34.732Z,13.88
2022-10-30T04:08:04.806Z,13.87
2022-10-30T04:10:31.779Z,13.86
2022-10-30T04:13:03.226Z,13.83
2022-10-30T04:15:30.353Z,13.83
2022-10-30T04:17:57.711Z,13.84
2022-10-30T04:20:25.723Z,13.83
2022-10-30T04:22:57.405Z,13.81
2022-10-30T04:25:24.363Z,13.78
2022-10-30T04:27:53.116Z,13.80
2022-10-30T04:30:25.263Z,13.76
2022-10-30T04:32:54.594Z,13.77
2022-10-30T04:35:24.554Z,13.76
2022-10-30T04:37:57.026Z,13.74
2022-10-30T04:40:25.977Z,13.74
2022-10-30T04:42:53.250Z,13.75
2022-10-30T04:45:20.228Z,13.72
2022-10-30T04:47:47.430Z,13.72
2022-10-30T04:50:14.895Z,13.73
2022-10-30T04:52:42.099Z,13.71
2022-10-30T04:55:10.444Z,13.68
2022-10-30T04:57:38.044Z,13.68
2022-10-30T05:00:06.116Z,13.68
2022-10-30T05:02:36.043Z,13.67
2022-10-30T05:05:04.185Z,13.67
2022-10-30T05:07:31.040Z,13.66
2022-10-30T05:09:57.889Z,13.64
2022-10-30T05:12:24.737Z,13.62
2022-10-30T05:14:51.518Z,13.64
2022-10-30T05:17:18.347Z,13.65
2022-10-30T05:19:45.157Z,13.64
2022-10-30T05:22:12.874Z,13.66
2022-10-30T05:24:39.833Z,13.66
2022-10-30T05:27:06.614Z,13.63
2022-10-30T05:29:33.482Z,13.62
2022-10-30T05:32:00.321Z,13.58
2022-10-30T05:34:27.130Z,13.59
2022-10-30T05:36:54.020Z,13.55
2022-10-30T05:39:20.825Z,13.54
2022-10-30T05:41:47.778Z,13.52
2022-10-30T05:44:15.999Z,13.52
2022-10-30T05:46:47.850Z,13.50
2022-10-30T05:49:14.696Z,13.50
2022-10-30T05:51:41.594Z,13.50
2022-10-30T05:54:08.289Z,13.49
2022-10-30T05:56:35.052Z,13.46
2022-10-30T05:59:01.752Z,13.42
2022-10-30T06:01:28.581Z,13.41
2022-10-30T06:03:55.343Z,13.41
2022-10-30T06:06:22.165Z,13.40
2022-10-30T06:08:48.925Z,13.38
2022-10-30T06:11:15.623Z,13.37
2022-10-30T06:13:42.379Z,13.37
2022-10-30T06:16:09.126Z,13.37
2022-10-30T06:18:35.863Z,13.37
2022-10-30T06:21:02.695Z,13.39
2022-10-30T06:23:29.433Z,13.38
2022-10-30T06:25:56.194Z,13.37
2022-10-30T06:28:23.002Z,13.37
2022-10-30T06:30:49.752Z,13.37
2022-10-30T06:33:16.507Z,13.37
2022-10-30T06:35:43.253Z,13.39
2022-10-30T06:38:12.046Z,13.39
2022-10-30T06:40:38.830Z,13.39
2022-10-30T06:43:05.607Z,13.40
2022-10-30T06:45:32.336Z,13.40
2022-10-30T06:48:02.058Z,13.41
2022-10-30T06:50:29.288Z,13.42
2022-10-30T06:52:56.086Z,13.43
2022-10-30T06:55:23.068Z,13.44
2022-10-30T06:57:55.038Z,13.44
2022-10-30T07:00:22.001Z,13.45
2022-10-30T07:02:56.575Z,13.47
2022-10-30T07:05:23.703Z,13.47
2022-10-30T07:07:50.454Z,13.47
2022-10-30T07:10:17.265Z,13.47
2022-10-30T07:12:51.379Z,13.47
2022-10-30T07:15:18.679Z,13.50
2022-10-30T07:17:55.240Z,13.51
2022-10-30T07:20:22.264Z,13.53
2022-10-30T07:22:48.997Z,13.54
2022-10-30T07:25:15.800Z,13.54
2022-10-30T07:27:52.727Z,13.55
2022-10-30T07:30:22.809Z,13.58
2022-10-30T07:33:04.286Z,13.56
2022-10-30T07:35:32.007Z,13.59
2022-10-30T07:38:05.787Z,13.59
2022-10-30T07:40:33.641Z,13.62
2022-10-30T07:43:02.252Z,13.63
2022-10-30T07:45:30.055Z,13.66
2022-10-30T07:47:57.681Z,13.64
2022-10-30T07:50:25.098Z,13.66
2022-10-30T07:52:51.831Z,13.67
2022-10-30T07:55:18.795Z,13.70
2022-10-30T07:57:45.644Z,13.69
2022-10-30T08:00:14.705Z,13.69
2022-10-30T08:02:42.374Z,13.71
2022-10-30T08:05:10.156Z,13.71
2022-10-30T08:07:38.182Z,13.76
2022-10-30T08:10:06.266Z,13.76
2022-10-30T08:12:34.410Z,13.78
2022-10-30T08:15:01.544Z,13.81
2022-10-30T08:17:28.749Z,13.85
2022-10-30T08:19:57.219Z,13.88
2022-10-30T08:22:24.459Z,13.90
2022-10-30T08:24:51.360Z,13.92
2022-10-30T08:27:18.282Z,13.95
2022-10-30T08:29:45.034Z,13.98
2022-10-30T08:32:11.832Z,14.00
2022-10-30T08:34:38.742Z,14.01
2022-10-30T08:37:08.000Z,14.03
2022-10-30T08:39:34.813Z,14.05
2022-10-30T08:42:01.668Z,14.06
2022-10-30T08:44:28.441Z,14.11
2022-10-30T08:46:55.203Z,14.13
2022-10-30T08:49:21.991Z,14.16
2022-10-30T08:51:48.737Z,14.19
2022-10-30T08:54:15.497Z,14.22
2022-10-30T08:56:42.310Z,14.24
2022-10-30T08:59:09.158Z,14.26
2022-10-30T09:01:36.993Z,14.31
2022-10-30T09:04:04.082Z,14.31
2022-10-30T09:06:31.946Z,14.34
2022-10-30T09:08:58.870Z,14.34
2022-10-30T09:11:25.890Z,14.36
2022-10-30T09:13:52.793Z,14.38
2022-10-30T09:16:19.705Z,14.41
2022-10-30T09:18:46.470Z,14.43
2022-10-30T09:21:13.247Z,14.45
2022-10-30T09:23:40.124Z,14.47
2022-10-30T09:26:06.897Z,14.49
2022-10-30T09:28:33.684Z,14.52
2022-10-30T09:31:01.867Z,14.54
2022-10-30T09:33:28.809Z,14.56
2022-10-30T09:35:55.660Z,14.58
2022-10-30T09:38:22.388Z,14.61
2022-10-30T09:41:03.765Z,14.64
2022-10-30T09:43:40.784Z,14.68
2022-10-30T09:46:16.597Z,14.70
2022-10-30T09:49:06.885Z,14.72
2022-10-30T09:51:53.629Z,14.74
2022-10-30T09:54:51.072Z,14.78
2022-10-30T09:57:45.660Z,14.82
2022-10-30T10:00:18.568Z,14.85
2022-10-30T10:03:01.012Z,14.87
2022-10-30T10:05:39.025Z,14.90
2022-10-30T10:08:13.609Z,14.93
2022-10-30T10:10:46.297Z,14.95
2022-10-30T10:13:38.500Z,14.98
2022-10-30T10:16:16.497Z,14.99
2022-10-30T10:18:48.237Z,15.02
2022-10-30T10:21:25.825Z,15.03
2022-10-30T10:23:59.368Z,15.07
2022-10-30T10:26:45.358Z,15.09
2022-10-30T10:30:01.938Z,15.11
2022-10-30T10:32:29.019Z,15.15
2022-10-30T10:35:23.516Z,15.18
2022-10-30T10:38:13.599Z,15.22
2022-10-30T10:40:58.820Z,15.23
2022-10-30T10:43:25.600Z,15.28
2022-10-30T10:46:23.784Z,15.28
2022-10-30T10:48:50.580Z,15.32
2022-10-30T10:51:25.612Z,15.32
2022-10-30T10:54:00.809Z,15.35
2022-10-30T10:56:36.674Z,15.38
2022-10-30T10:59:09.011Z,15.40
2022-10-30T11:01:40.898Z,15.43
2022-10-30T11:04:13.832Z,15.47
2022-10-30T11:06:43.971Z,15.49
2022-10-30T11:09:19.988Z,15.52
2022-10-30T11:11:48.107Z,15.54
2022-10-30T11:14:18.836Z,15.58
2022-10-30T11:16:48.623Z,15.62
2022-10-30T11:19:15.528Z,15.68
2022-10-30T11:21:49.052Z,15.68
2022-10-30T11:24:33.615Z,15.68
2022-10-30T11:27:26.459Z,15.74
2022-10-30T11:30:01.903Z,15.76
2022-10-30T11:32:34.619Z,15.79
2022-10-30T11:35:07.438Z,15.82
2022-10-30T11:37:40.190Z,15.86
2022-10-30T11:40:17.799Z,15.89
2022-10-30T11:42:59.786Z,15.91
2022-10-30T11:45:31.096Z,15.93
2022-10-30T11:48:02.760Z,15.95
2022-10-30T11:50:32.587Z,15.98
2022-10-30T11:53:03.167Z,16.01
2022-10-30T11:55:50.507Z,16.02
2022-10-30T11:58:24.147Z,16.05
2022-10-30T12:01:36.272Z,16.09
2022-10-30T12:04:23.454Z,16.13
2022-10-30T12:07:14.973Z,16.16
2022-10-30T12:09:43.772Z,16.19
2022-10-30T12:12:20.170Z,16.22
2022-10-30T12:14:47.181Z,16.24
2022-10-30T12:17:16.393Z,16.26
2022-10-30T12:19:49.723Z,16.29
2022-10-30T12:22:31.853Z,16.32
2022-10-30T12:25:15.683Z,16.34
2022-10-30T12:27:42.626Z,16.36
2022-10-30T12:30:21.061Z,16.39
2022-10-30T12:33:13.844Z,16.42
2022-10-30T12:35:53.888Z,16.44
2022-10-30T12:38:32.673Z,16.47
2022-10-30T12:41:30.728Z,16.49
2022-10-30T12:44:09.808Z,16.53
2022-10-30T12:46:48.869Z,16.54
2022-10-30T12:49:42.299Z,16.55
2022-10-30T12:52:13.406Z,16.57
2022-10-30T12:54:40.111Z,16.57
2022-10-30T12:57:19.617Z,16.59
2022-10-30T13:00:00.283Z,16.60
2022-10-30T13:03:05.565Z,16.60
2022-10-30T13:05:53.532Z,16.60
2022-10-30T13:08:38.796Z,16.58
2022-10-30T13:11:16.375Z,16.58
2022-10-30T13:13:48.717Z,16.59
2022-10-30T13:16:21.332Z,16.58
2022-10-30T13:18:48.483Z,16.58
2022-10-30T13:21:24.480Z,16.58
2022-10-30T13:24:00.844Z,16.57
2022-10-30T13:26:35.997Z,16.57
2022-10-30T13:29:21.723Z,16.57
2022-10-30T13:32:10.844Z,16.57
2022-10-30T13:34:49.116Z,16.57
2022-10-30T13:37:35.079Z,16.57
2022-10-30T13:40:10.876Z,16.56
2022-10-30T13:43:05.363Z,16.57
2022-10-30T13:45:38.437Z,16.57
2022-10-30T13:48:13.366Z,16.56
2022-10-30T13:50:43.253Z,16.55
2022-10-30T13:53:17.698Z,16.56
2022-10-30T13:55:46.288Z,16.55
2022-10-30T13:58:21.182Z,16.55
2022-10-30T14:00:57.292Z,16.55
2022-10-30T14:03:50.164Z,16.55
2022-10-30T14:06:32.232Z,16.55
2022-10-30T14:09:30.531Z,16.55
2022-10-30T14:12:02.181Z,16.56
2022-10-30T14:14:30.992Z,16.55
2022-10-30T14:17:10.692Z,16.57
2022-10-30T14:20:10.414Z,16.58
2022-10-30T14:22:40.707Z,16.59
2022-10-30T14:25:16.232Z,16.60
2022-10-30T14:27:43.691Z,16.59
2022-10-30T14:30:20.348Z,16.61
2022-10-30T14:32:56.832Z,16.61
2022-10-30T14:35:38.031Z,16.62
2022-10-30T14:38:07.981Z,16.62
2022-10-30T14:40:56.559Z,16.62
2022-10-30T14:43:36.061Z,16.63
2022-10-30T14:46:14.067Z,16.63
2022-10-30T14:48:46.922Z,16.62
2022-10-30T14:51:28.023Z,16.63
2022-10-30T14:54:07.131Z,16.60
2022-10-30T14:56:54.367Z,16.60
2022-10-30T14:59:35.470Z,16.59
2022-10-30T15:02:14.935Z,16.60
2022-10-30T15:04:50.910Z,16.58
2022-10-30T15:07:39.339Z,16.57
2022-10-30T15:10:19.039Z,16.56
2022-10-30T15:12:58.208Z,16.53
2022-10-30T15:15:28.314Z,16.55
2022-10-30T15:17:59.386Z,16.51
2022-10-30T15:20:31.819Z,16.51
2022-10-30T15:23:06.973Z,16.48
2022-10-30T15:25:45.965Z,16.48
2022-10-30T15:31:20.817Z,16.43
2022-10-30T15:33:48.445Z,16.41
2022-10-30T15:36:26.127Z,16.39
2022-10-30T15:39:22.191Z,16.38
2022-10-30T15:41:53.973Z,16.38
2022-10-30T15:44:30.670Z,16.36
2022-10-30T15:47:01.588Z,16.36
2022-10-30T15:49:42.370Z,16.32
2022-10-30T15:52:17.343Z,16.27
2022-10-30T15:54:47.513Z,16.26
2022-10-30T16:00:33.759Z,16.23
2022-10-30T16:03:06.016Z,16.22
2022-10-30T16:05:35.001Z,16.20
2022-10-30T16:08:04.223Z,16.17
2022-10-30T16:10:34.841Z,16.16
2022-10-30T16:13:03.686Z,16.16
2022-10-30T16:15:38.563Z,16.15
2022-10-30T16:18:17.650Z,16.15
2022-10-30T16:20:49.479Z,16.13
2022-10-30T16:23:20.158Z,16.13
2022-10-30T16:25:48.830Z,16.12
2022-10-30T16:28:29.311Z,16.14
2022-10-30T16:31:06.893Z,16.12
2022-10-30T16:33:36.575Z,16.11
2022-10-30T16:36:06.402Z,16.09
2022-10-30T16:38:38.635Z,16.08
2022-10-30T16:41:08.172Z,16.08
2022-10-30T16:43:36.536Z,16.06
2022-10-30T16:46:16.524Z,16.05
2022-10-30T16:49:08.362Z,16.04
2022-10-30T16:51:39.292Z,16.04
2022-10-30T16:54:18.923Z,16.03
2022-10-30T16:56:49.439Z,16.01
2022-10-30T16:59:32.418Z,15.99
2022-10-30T17:02:06.123Z,15.97
2022-10-30T17:04:35.139Z,15.97
2022-10-30T17:07:07.285Z,15.97
2022-10-30T17:09:37.148Z,15.96
2022-10-30T17:12:05.050Z,15.97
2022-10-30T17:14:48.699Z,15.95
2022-10-30T17:17:30.920Z,15.92
2022-10-30T17:20:04.240Z,15.91
2022-10-30T17:22:32.646Z,15.91
2022-10-30T17:25:00.907Z,15.90
2022-10-30T17:27:42.271Z,15.90
2022-10-30T17:30:30.061Z,15.87
2022-10-30T17:32:59.180Z,15.86
2022-10-30T17:35:28.233Z,15.86
2022-10-30T17:38:01.719Z,15.84
2022-10-30T17:40:33.009Z,15.82
2022-10-30T17:43:00.913Z,15.82
2022-10-30T17:45:30.751Z,15.79
2022-10-30T17:48:00.658Z,15.80
2022-10-30T17:50:31.909Z,15.80
2022-10-30T17:52:59.938Z,15.79
2022-10-30T17:55:33.214Z,15.79
2022-10-30T17:58:01.009Z,15.78
2022-10-30T18:00:28.495Z,15.79
2022-10-30T18:02:58.776Z,15.74
2022-10-30T18:05:33.893Z,15.74
2022-10-30T18:08:01.589Z,15.74
2022-10-30T18:10:31.033Z,15.73
2022-10-30T18:13:03.287Z,15.70
2022-10-30T18:15:41.031Z,15.69
2022-10-30T18:18:09.726Z,15.65
2022-10-30T18:20:38.232Z,15.65
2022-10-30T18:23:51.809Z,15.65
2022-10-30T18:26:21.176Z,15.63
2022-10-30T18:28:54.997Z,15.62
2022-10-30T18:31:26.192Z,15.60
2022-10-30T18:33:53.774Z,15.59
2022-10-30T18:36:26.131Z,15.55
2022-10-30T18:38:54.749Z,15.54
2022-10-30T18:41:37.739Z,15.53
2022-10-30T18:44:07.541Z,15.51
2022-10-30T18:46:36.848Z,15.48
2022-10-30T18:49:05.829Z,15.48
2022-10-30T18:51:34.380Z,15.45
2022-10-30T18:54:03.342Z,15.44
2022-10-30T18:56:33.084Z,15.45
2022-10-30T18:59:02.790Z,15.46
2022-10-30T19:01:37.023Z,15.43
2022-10-30T19:04:10.308Z,15.42
2022-10-30T19:06:39.360Z,15.40
2022-10-30T19:09:08.475Z,15.41
2022-10-30T19:11:38.428Z,15.39
2022-10-30T19:14:15.297Z,15.38
2022-10-30T19:16:44.009Z,15.39
2022-10-30T19:19:12.006Z,15.37
2022-10-30T19:21:45.348Z,15.35
2022-10-30T19:24:15.571Z,15.34
2022-10-30T19:26:43.381Z,15.30
2022-10-30T19:29:11.774Z,15.31
2022-10-30T19:31:39.972Z,15.31
2022-10-30T19:34:08.280Z,15.31
2022-10-30T19:36:38.381Z,15.31
2022-10-30T19:39:16.837Z,15.27
2022-10-30T19:41:44.916Z,15.24
2022-10-30T19:44:12.692Z,15.23
2022-10-30T19:46:41.443Z,15.22
2022-10-30T19:49:20.755Z,15.21
2022-10-30T19:51:50.575Z,15.25
2022-10-30T19:54:18.568Z,15.24
2022-10-30T19:56:47.931Z,15.23
2022-10-30T19:59:16.198Z,15.23
2022-10-30T20:01:45.932Z,15.22
2022-10-30T20:04:14.284Z,15.20
2022-10-30T20:06:42.970Z,15.20
2022-10-30T20:09:13.094Z,15.20
2022-10-30T20:11:44.704Z,15.19
2022-10-30T20:14:13.151Z,15.18
2022-10-30T20:16:41.237Z,15.17
2022-10-30T20:19:35.567Z,15.16
2022-10-30T20:22:03.690Z,15.16
2022-10-30T20:24:31.569Z,15.14
2022-10-30T20:26:59.581Z,15.14
2022-10-30T20:29:28.285Z,15.08
2022-10-30T20:31:56.160Z,15.09
2022-10-30T20:34:24.793Z,15.09
2022-10-30T20:36:52.589Z,15.07
2022-10-30T20:39:20.542Z,15.02
2022-10-30T20:41:48.450Z,15.00
2022-10-30T20:44:16.833Z,15.01
2022-10-30T20:46:44.665Z,15.01
2022-10-30T20:49:17.838Z,15.01
2022-10-30T20:51:47.197Z,15.00
2022-10-30T20:54:15.225Z,14.98
2022-10-30T20:56:42.734Z,14.98
2022-10-30T20:59:10.364Z,14.97
2022-10-30T21:01:37.928Z,14.96
2022-10-30T21:04:05.444Z,14.95
2022-10-30T21:06:32.851Z,14.94
2022-10-30T21:09:00.454Z,14.90
2022-10-30T21:11:28.126Z,14.92
2022-10-30T21:13:56.884Z,14.91
2022-10-30T21:16:24.584Z,14.90
2022-10-30T21:18:53.270Z,14.89
2022-10-30T21:21:25.401Z,14.87
2022-10-30T21:23:56.476Z,14.88
2022-10-30T21:26:24.827Z,14.88
2022-10-30T21:28:52.023Z,14.85
2022-10-30T21:31:19.042Z,14.85
2022-10-30T21:33:47.118Z,14.85
2022-10-30T21:36:16.299Z,14.85
2022-10-30T21:38:45.043Z,14.85
2022-10-30T21:41:17.605Z,14.82
2022-10-30T21:43:49.942Z,14.80
2022-10-30T21:46:16.795Z,14.82
2022-10-30T21:48:43.865Z,14.81
2022-10-30T21:51:16.401Z,14.79
2022-10-30T21:53:44.427Z,14.77
2022-10-30T21:56:18.735Z,14.77
2022-10-30T21:58:46.208Z,14.77
2022-10-30T22:01:19.691Z,14.75
2022-10-30T22:03:47.129Z,14.74
2022-10-30T22:06:16.477Z,14.73
2022-10-30T22:08:47.805Z,14.71
2022-10-30T22:11:15.137Z,14.68
2022-10-30T22:13:42.139Z,14.67
2022-10-30T22:16:11.788Z,14.66
2022-10-30T22:18:38.952Z,14.66
2022-10-30T22:21:08.216Z,14.63
2022-10-30T22:23:36.615Z,14.62
2022-10-30T22:26:06.478Z,14.59
2022-10-30T22:28:35.075Z,14.60
2022-10-30T22:31:07.901Z,14.60
2022-10-30T22:33:36.714Z,14.59
2022-10-30T22:36:12.103Z,14.57
2022-10-30T22:38:39.093Z,14.58
2022-10-30T22:41:11.796Z,14.58
2022-10-30T22:43:39.602Z,14.57
2022-10-30T22:46:06.855Z,14.54
2022-10-30T22:48:33.763Z,14.55
2022-10-30T22:51:02.268Z,14.55
2022-10-30T22:53:30.942Z,14.51
2022-10-30T22:55:57.783Z,14.52
2022-10-30T22:58:29.569Z,14.50
2022-10-30T23:01:18.900Z,14.50
2022-10-30T23:03:46.405Z,14.49
2022-10-30T23:06:13.764Z,14.49
2022-10-30T23:08:41.223Z,14.48
2022-10-30T23:11:08.274Z,14.48
2022-10-30T23:13:36.138Z,14.46
2022-10-30T23:16:05.632Z,14.43
2022-10-30T23:18:33.173Z,14.46
2022-10-30T23:21:06.975Z,14.41
2022-10-30T23:23:38.342Z,14.41
2022-10-30T23:26:08.711Z,14.41
2022-10-30T23:28:36.250Z,14.40
2022-10-30T23:31:10.411Z,14.40
2022-10-30T23:33:37.189Z,14.35
2022-10-30T23:36:04.623Z,14.36
2022-10-30T23:38:31.493Z,14.36
2022-10-30T23:40:58.278Z,14.34
2022-10-30T23:43:25.113Z,14.34
2022-10-30T23:45:51.889Z,14.31
2022-10-30T23:48:18.640Z,14.31
2022-10-30T23:50:45.370Z,14.29
2022-10-30T23:53:12.071Z,14.32
2022-10-30T23:55:38.867Z,14.29
2022-10-30T23:58:05.680Z,14.26
